createdAt,value
2018-05-12T00:00:06.411Z,7.57
2018-05-12T00:02:34.608Z,6.47
2018-05-12T00:05:02.045Z,9.03
2018-05-12T00:07:29.478Z,7.33
2018-05-12T00:09:56.911Z,7.37
2018-05-12T00:12:24.345Z,9.00
2018-05-12T00:14:52.555Z,7.40
2018-05-12T00:17:20.740Z,8.30
2018-05-12T00:19:48.582Z,7.70
2018-05-12T00:22:16.013Z,12.40
2018-05-12T00:24:43.836Z,7.23
2018-05-12T00:27:12.035Z,7.20
2018-05-12T00:29:39.862Z,11.40
2018-05-12T00:32:08.052Z,9.77
2018-05-12T00:34:35.904Z,8.83
2018-05-12T00:37:04.104Z,9.40
2018-05-12T00:39:32.304Z,8.63
2018-05-12T00:42:00.130Z,8.10
2018-05-12T00:44:27.969Z,12.00
2018-05-12T00:46:55.405Z,7.50
2018-05-12T00:49:23.232Z,8.77
2018-05-12T00:51:51.433Z,7.73
2018-05-12T00:54:19.628Z,9.80
2018-05-12T00:56:47.456Z,8.33
2018-05-12T00:59:14.890Z,19.40
2018-05-12T01:01:43.080Z,9.03
2018-05-12T01:04:11.292Z,7.97
2018-05-12T01:06:38.728Z,7.93
2018-05-12T01:09:06.172Z,9.50
2018-05-12T01:11:33.612Z,11.67
2018-05-12T01:14:01.040Z,7.83
2018-05-12T01:16:28.472Z,12.73
2018-05-12T01:18:55.926Z,12.13
2018-05-12T01:21:24.119Z,12.00
2018-05-12T01:23:52.311Z,8.70
2018-05-12T01:26:19.752Z,11.23
2018-05-12T01:28:47.197Z,10.33
2018-05-12T01:31:14.641Z,20.77
2018-05-12T01:33:43.437Z,12.30
2018-05-12T01:36:10.886Z,12.43
2018-05-12T01:38:38.316Z,9.60
2018-05-12T01:41:05.769Z,10.00
2018-05-12T01:43:33.206Z,8.87
2018-05-12T01:46:01.039Z,12.37
2018-05-12T01:48:28.486Z,11.33
2018-05-12T01:50:55.921Z,11.67
2018-05-12T01:53:23.357Z,11.77
2018-05-12T01:55:50.797Z,13.10
2018-05-12T01:58:18.230Z,13.03
2018-05-12T02:00:45.680Z,13.90
2018-05-12T02:03:13.127Z,11.90
2018-05-12T02:05:41.320Z,10.53
2018-05-12T02:08:08.765Z,14.10
2018-05-12T02:10:36.216Z,14.40
2018-05-12T02:13:05.156Z,11.17
2018-05-12T02:15:33.353Z,11.73
2018-05-12T02:18:01.953Z,15.40
2018-05-12T02:20:29.380Z,11.97
2018-05-12T02:22:56.826Z,16.07
2018-05-12T02:25:24.265Z,12.87
2018-05-12T02:27:51.700Z,12.57
2018-05-12T02:30:19.235Z,18.03
2018-05-12T02:32:46.602Z,12.57
2018-05-12T02:35:14.046Z,14.70
2018-05-12T02:37:41.481Z,11.03
2018-05-12T02:40:08.934Z,13.67
2018-05-12T02:42:37.142Z,15.23
2018-05-12T02:45:04.573Z,11.10
2018-05-12T02:47:32.023Z,14.57
2018-05-12T02:49:59.465Z,16.27
2018-05-12T02:52:26.901Z,13.43
2018-05-12T02:54:54.343Z,11.47
2018-05-12T02:57:21.778Z,18.80
2018-05-12T02:59:49.236Z,13.43
2018-05-12T03:02:16.681Z,15.00
2018-05-12T03:04:44.116Z,16.10
2018-05-12T03:07:11.557Z,15.07
2018-05-12T03:09:39.282Z,14.83
2018-05-12T03:12:06.720Z,21.30
2018-05-12T03:14:34.157Z,17.90
2018-05-12T03:17:01.925Z,14.10
2018-05-12T03:19:29.365Z,13.70
2018-05-12T03:21:56.804Z,18.47
2018-05-12T03:24:24.262Z,16.77
2018-05-12T03:26:52.468Z,12.50
2018-05-12T03:29:19.905Z,19.93
2018-05-12T03:31:47.364Z,15.83
2018-05-12T03:34:14.801Z,16.37
2018-05-12T03:36:42.641Z,18.37
2018-05-12T03:39:10.861Z,16.70
2018-05-12T03:41:38.393Z,14.33
2018-05-12T03:44:05.831Z,15.87
2018-05-12T03:46:33.285Z,17.37
2018-05-12T03:49:00.726Z,18.00
2018-05-12T03:51:28.173Z,20.57
2018-05-12T03:53:56.380Z,17.77
2018-05-12T03:56:23.822Z,21.70
2018-05-12T03:58:52.030Z,24.20
2018-05-12T04:01:19.516Z,20.30
2018-05-12T04:03:46.950Z,18.83
2018-05-12T04:06:26.985Z,19.70
2018-05-12T04:09:06.080Z,18.13
2018-05-12T04:14:40.205Z,20.83
2018-05-12T04:17:08.424Z,17.57
2018-05-12T04:19:35.876Z,17.17
2018-05-12T04:22:03.341Z,23.10
2018-05-12T04:24:31.548Z,20.70
2018-05-12T04:26:58.984Z,18.43
2018-05-12T04:29:27.213Z,18.27
2018-05-12T04:31:54.661Z,23.63
2018-05-12T04:34:22.098Z,16.37
2018-05-12T04:36:50.305Z,14.27
2018-05-12T04:39:17.785Z,18.40
2018-05-12T04:41:45.219Z,17.37
2018-05-12T04:44:13.059Z,19.90
2018-05-12T04:46:41.296Z,20.43
2018-05-12T04:49:09.493Z,21.40
2018-05-12T04:51:37.329Z,21.73
2018-05-12T04:54:04.777Z,15.17
2018-05-12T04:56:32.218Z,19.93
2018-05-12T04:58:59.701Z,18.40
2018-05-12T05:01:27.164Z,20.70
2018-05-12T05:03:54.613Z,19.40
2018-05-12T05:06:22.056Z,24.70
2018-05-12T05:08:50.264Z,25.87
2018-05-12T05:11:17.704Z,21.47
2018-05-12T05:13:45.913Z,21.50
2018-05-12T05:16:13.368Z,20.27
2018-05-12T05:18:41.581Z,19.47
2018-05-12T05:21:09.051Z,15.13
2018-05-12T05:23:37.238Z,17.97
2018-05-12T05:26:04.675Z,15.90
2018-05-12T05:28:32.880Z,21.50
2018-05-12T05:31:00.333Z,20.50
2018-05-12T05:33:27.777Z,18.57
2018-05-12T05:35:55.216Z,16.70
2018-05-12T05:38:22.680Z,20.73
2018-05-12T05:40:50.121Z,22.93
2018-05-12T05:43:17.553Z,20.70
2018-05-12T05:45:45.788Z,19.20
2018-05-12T05:48:14.729Z,16.23
2018-05-12T05:50:43.680Z,17.93
2018-05-12T05:53:11.453Z,18.77
2018-05-12T05:55:38.864Z,18.97
2018-05-12T05:58:07.813Z,14.70
2018-05-12T06:00:35.257Z,15.60
2018-05-12T06:03:03.490Z,19.00
2018-05-12T06:05:30.927Z,21.80
2018-05-12T06:07:59.149Z,25.10
2018-05-12T06:10:26.587Z,19.27
2018-05-12T06:12:54.701Z,15.50
2018-05-12T06:15:22.157Z,20.90
2018-05-12T06:17:49.592Z,19.13
2018-05-12T06:20:18.542Z,18.27
2018-05-12T06:22:45.996Z,20.80
2018-05-12T06:25:13.446Z,17.33
2018-05-12T06:27:41.640Z,17.77
2018-05-12T06:30:09.497Z,16.70
2018-05-12T06:32:37.697Z,16.87
2018-05-12T06:35:05.138Z,16.83
2018-05-12T06:37:33.352Z,18.27
2018-05-12T06:40:00.795Z,17.33
2018-05-12T06:42:29.596Z,17.90
2018-05-12T06:44:57.808Z,18.50
2018-05-12T06:47:25.260Z,16.33
2018-05-12T06:49:53.465Z,17.87
2018-05-12T06:52:20.917Z,17.10
2018-05-12T06:54:48.356Z,13.70
2018-05-12T06:57:15.784Z,11.77
2018-05-12T06:59:43.237Z,14.20
2018-05-12T07:02:11.425Z,14.97
2018-05-12T07:04:38.857Z,15.43
2018-05-12T07:07:07.065Z,14.70
2018-05-12T07:09:34.900Z,19.10
2018-05-12T07:12:02.346Z,13.03
2018-05-12T07:14:29.790Z,21.10
2018-05-12T07:16:57.225Z,13.73
2018-05-12T07:19:25.110Z,16.10
2018-05-12T07:21:52.900Z,10.60
2018-05-12T07:24:20.362Z,11.53
2018-05-12T07:26:48.704Z,14.00
2018-05-12T07:29:16.148Z,17.17
2018-05-12T07:31:43.985Z,13.57
2018-05-12T07:34:12.212Z,10.80
2018-05-12T07:36:39.640Z,14.30
2018-05-12T07:39:07.542Z,10.97
2018-05-12T07:41:35.313Z,11.80
2018-05-12T07:44:02.760Z,12.87
2018-05-12T07:46:30.992Z,11.83
2018-05-12T07:48:59.564Z,13.40
2018-05-12T07:51:27.129Z,11.53
2018-05-12T07:53:54.557Z,15.80
2018-05-12T07:56:21.988Z,13.00
2018-05-12T07:58:49.459Z,12.23
2018-05-12T08:01:16.933Z,8.43
2018-05-12T08:03:44.352Z,10.60
2018-05-12T08:06:11.796Z,11.00
2018-05-12T08:08:39.233Z,34.37
2018-05-12T08:11:06.669Z,9.20
2018-05-12T08:13:34.115Z,9.77
2018-05-12T08:16:02.312Z,9.20
2018-05-12T08:18:29.740Z,12.30
2018-05-12T08:20:57.195Z,7.80
2018-05-12T08:23:24.628Z,9.47
2018-05-12T08:25:53.236Z,9.00
2018-05-12T08:28:20.685Z,6.93
2018-05-12T08:30:48.104Z,7.83
2018-05-12T08:33:15.996Z,6.93
2018-05-12T08:35:44.204Z,7.97
2018-05-12T08:38:11.664Z,6.33
2018-05-12T08:40:39.868Z,5.80
2018-05-12T08:43:07.322Z,14.20
2018-05-12T08:45:35.523Z,8.10
2018-05-12T08:48:02.948Z,6.30
2018-05-12T08:50:30.390Z,6.93
2018-05-12T08:52:57.829Z,4.13
2018-05-12T08:55:25.267Z,4.77
2018-05-12T08:57:53.549Z,5.10
2018-05-12T09:00:21.754Z,6.50
2018-05-12T09:02:49.942Z,8.00
2018-05-12T09:05:17.389Z,5.43
2018-05-12T09:07:49.373Z,4.53
2018-05-12T09:10:19.333Z,4.90
2018-05-12T09:12:48.243Z,5.30
2018-05-12T09:15:17.040Z,5.93
2018-05-12T09:17:44.489Z,5.00
2018-05-12T09:20:11.928Z,4.60
2018-05-12T09:25:18.220Z,4.03
2018-05-12T09:27:47.857Z,5.03
2018-05-12T09:30:15.304Z,4.00
2018-05-12T09:32:42.753Z,6.67
2018-05-12T09:35:10.327Z,3.70
2018-05-12T09:37:38.154Z,3.97
2018-05-12T09:40:05.609Z,4.20
2018-05-12T09:42:34.550Z,4.87
2018-05-12T09:45:02.742Z,3.83
2018-05-12T09:47:30.180Z,4.97
2018-05-12T09:49:57.612Z,6.23
2018-05-12T09:52:25.065Z,3.53
2018-05-12T09:54:52.505Z,4.60
2018-05-12T09:57:20.708Z,5.47
2018-05-12T09:59:48.552Z,4.40
2018-05-12T10:02:16.010Z,5.10
2018-05-12T10:04:43.433Z,4.03
2018-05-12T10:07:11.302Z,4.87
2018-05-12T10:09:38.783Z,4.20
2018-05-12T10:12:06.184Z,4.83
2018-05-12T10:14:33.626Z,4.33
2018-05-12T10:17:01.482Z,11.47
2018-05-12T10:19:29.335Z,3.60
2018-05-12T10:21:56.765Z,3.87
2018-05-12T10:24:24.197Z,5.73
2018-05-12T10:26:51.637Z,9.80
2018-05-12T10:29:19.061Z,3.97
2018-05-12T10:31:47.296Z,3.50
2018-05-12T10:34:14.729Z,6.37
2018-05-12T10:36:42.929Z,7.03
2018-05-12T10:39:10.392Z,3.47
2018-05-12T10:41:37.832Z,6.50
2018-05-12T10:44:05.258Z,3.60
2018-05-12T10:46:32.689Z,4.13
2018-05-12T10:49:00.124Z,3.47
2018-05-12T10:51:28.321Z,2.90
2018-05-12T10:53:56.529Z,3.77
2018-05-12T10:56:23.965Z,4.10
2018-05-12T10:58:51.397Z,6.47
2018-05-12T11:01:18.845Z,3.30
2018-05-12T11:03:46.290Z,3.67
2018-05-12T11:06:13.725Z,4.10
2018-05-12T11:08:41.166Z,3.70
2018-05-12T11:11:08.618Z,5.17
2018-05-12T11:13:36.058Z,4.40
2018-05-12T11:16:05.129Z,3.83
2018-05-12T11:18:32.448Z,4.90
2018-05-12T11:21:00.286Z,7.03
2018-05-12T11:23:27.720Z,4.00
2018-05-12T11:25:55.157Z,4.53
2018-05-12T11:28:22.604Z,4.00
2018-05-12T11:30:50.816Z,3.73
2018-05-12T11:33:18.256Z,3.70
2018-05-12T11:35:46.448Z,4.00
2018-05-12T11:38:13.893Z,3.80
2018-05-12T11:40:42.130Z,4.30
2018-05-12T11:43:09.580Z,4.17
2018-05-12T11:45:37.020Z,3.80
2018-05-12T11:48:05.240Z,4.07
2018-05-12T11:50:32.669Z,3.67
2018-05-12T11:53:00.880Z,4.20
2018-05-12T11:55:28.317Z,4.23
2018-05-12T11:57:55.948Z,4.37
2018-05-12T12:00:23.394Z,4.37
2018-05-12T12:02:50.853Z,4.33
2018-05-12T12:05:19.039Z,5.53
2018-05-12T12:07:46.473Z,4.53
2018-05-12T12:10:13.908Z,3.80
2018-05-12T12:12:41.342Z,3.93
2018-05-12T12:15:09.549Z,4.23
2018-05-12T12:17:36.988Z,4.40
2018-05-12T12:20:04.420Z,3.13
2018-05-12T12:22:32.996Z,4.17
2018-05-12T12:25:00.442Z,5.17
2018-05-12T12:27:27.886Z,4.00
2018-05-12T12:29:55.337Z,3.57
2018-05-12T12:32:24.132Z,4.13
2018-05-12T12:34:52.372Z,4.60
2018-05-12T12:37:19.848Z,4.43
2018-05-12T12:39:47.281Z,3.53
2018-05-12T12:42:14.757Z,3.97
2018-05-12T12:44:42.229Z,3.43
2018-05-12T12:47:09.672Z,4.27
2018-05-12T12:49:37.864Z,3.93
2018-05-12T12:52:05.305Z,5.80
2018-05-12T12:54:32.816Z,4.50
2018-05-12T12:57:00.246Z,3.80
2018-05-12T12:59:29.051Z,4.10
2018-05-12T13:01:57.246Z,3.13
2018-05-12T13:04:25.456Z,5.07
2018-05-12T13:06:53.665Z,3.87
2018-05-12T13:09:21.088Z,3.33
2018-05-12T13:11:48.536Z,3.80
2018-05-12T13:14:15.991Z,3.40
2018-05-12T13:16:43.416Z,3.97
2018-05-12T13:19:10.844Z,6.63
2018-05-12T13:21:39.079Z,3.10
2018-05-12T13:24:07.618Z,3.43
2018-05-12T13:26:35.472Z,4.23
2018-05-12T13:29:02.913Z,3.17
2018-05-12T13:31:30.347Z,3.37
2018-05-12T13:33:57.788Z,3.70
2018-05-12T13:36:26.733Z,3.27
2018-05-12T13:38:54.184Z,7.13
2018-05-12T13:41:22.429Z,2.63
2018-05-12T13:43:50.101Z,2.63
2018-05-12T13:46:17.543Z,3.50
2018-05-12T13:48:45.000Z,4.10
2018-05-12T13:51:12.464Z,3.70
2018-05-12T13:53:39.917Z,3.43
2018-05-12T13:56:08.108Z,3.77
2018-05-12T13:58:35.549Z,3.63
2018-05-12T14:01:03.025Z,4.03
2018-05-12T14:03:31.232Z,3.60
2018-05-12T14:05:59.122Z,3.13
2018-05-12T14:08:26.565Z,3.43
2018-05-12T14:10:54.753Z,4.17
2018-05-12T14:13:22.971Z,3.47
2018-05-12T14:15:51.153Z,9.40
2018-05-12T14:18:18.985Z,4.80
2018-05-12T14:20:46.826Z,4.97
2018-05-12T14:23:14.656Z,4.30
2018-05-12T14:25:42.864Z,3.53
2018-05-12T14:28:10.735Z,3.40
2018-05-12T14:30:38.173Z,3.90
2018-05-12T14:33:05.592Z,3.93
2018-05-12T14:35:33.038Z,4.90
2018-05-12T14:38:01.242Z,4.40
2018-05-12T14:40:28.675Z,3.70
2018-05-12T14:42:56.281Z,4.00
2018-05-12T14:45:23.712Z,4.20
2018-05-12T14:47:51.141Z,4.17
2018-05-12T14:50:18.588Z,3.77
2018-05-12T14:52:46.018Z,3.70
2018-05-12T14:55:13.452Z,3.80
2018-05-12T14:57:40.892Z,4.33
2018-05-12T15:00:08.320Z,3.70
2018-05-12T15:02:35.751Z,3.67
2018-05-12T15:05:03.204Z,3.63
2018-05-12T15:07:30.640Z,8.53
2018-05-12T15:09:58.056Z,3.87
2018-05-12T15:12:26.652Z,4.50
2018-05-12T15:14:54.157Z,4.13
2018-05-12T15:17:21.517Z,3.47
2018-05-12T15:19:48.982Z,3.70
2018-05-12T15:22:17.177Z,4.03
2018-05-12T15:24:44.617Z,3.80
2018-05-12T15:27:12.833Z,6.63
2018-05-12T15:29:40.265Z,8.07
2018-05-12T15:32:07.703Z,7.23
2018-05-12T15:34:35.565Z,4.40
2018-05-12T15:37:03.764Z,4.40
2018-05-12T15:39:31.213Z,4.57
2018-05-12T15:41:58.662Z,4.60
2018-05-12T15:44:26.134Z,3.80
2018-05-12T15:46:53.584Z,3.50
2018-05-12T15:49:21.826Z,4.03
2018-05-12T15:51:49.265Z,4.87
2018-05-12T15:54:17.540Z,5.20
2018-05-12T15:56:45.749Z,4.87
2018-05-12T15:59:13.178Z,4.87
2018-05-12T16:01:41.381Z,4.27
2018-05-12T16:04:08.821Z,4.30
2018-05-12T16:06:36.682Z,4.63
2018-05-12T16:09:04.100Z,7.23
2018-05-12T16:11:31.573Z,3.73
2018-05-12T16:13:59.000Z,3.70
2018-05-12T16:16:27.203Z,3.70
2018-05-12T16:18:54.645Z,4.00
2018-05-12T16:21:22.071Z,3.67
2018-05-12T16:23:49.501Z,4.57
2018-05-12T16:26:17.013Z,3.77
2018-05-12T16:28:45.280Z,4.30
2018-05-12T16:31:12.809Z,6.13
2018-05-12T16:33:40.976Z,3.53
2018-05-12T16:36:08.421Z,3.90
2018-05-12T16:38:38.007Z,4.70
2018-05-12T16:41:05.495Z,4.67
2018-05-12T16:43:33.656Z,5.03
2018-05-12T16:46:01.093Z,5.57
2018-05-12T16:48:28.539Z,4.17
2018-05-12T16:50:56.037Z,4.03
2018-05-12T16:53:23.397Z,4.40
2018-05-12T16:55:50.857Z,3.80
2018-05-12T16:58:18.285Z,4.30
2018-05-12T17:00:45.718Z,4.10
2018-05-12T17:03:13.922Z,4.37
2018-05-12T17:05:41.353Z,9.50
2018-05-12T17:08:08.785Z,5.30
2018-05-12T17:10:36.225Z,4.07
2018-05-12T17:13:04.431Z,4.00
2018-05-12T17:15:32.988Z,4.17
2018-05-12T17:18:01.196Z,5.50
2018-05-12T17:20:29.757Z,4.53
2018-05-12T17:22:58.687Z,5.10
2018-05-12T17:25:26.145Z,8.70
2018-05-12T17:27:53.573Z,4.60
2018-05-12T17:30:21.098Z,5.23
2018-05-12T17:32:48.457Z,8.40
2018-05-12T17:35:15.895Z,4.93
2018-05-12T17:37:44.106Z,5.30
2018-05-12T17:40:12.296Z,4.87
2018-05-12T17:42:39.792Z,5.50
2018-05-12T17:45:07.221Z,8.00
2018-05-12T17:47:34.675Z,4.93
2018-05-12T17:50:03.654Z,4.90
2018-05-12T17:52:31.052Z,6.40
2018-05-12T17:54:59.287Z,5.53
2018-05-12T17:57:26.720Z,6.10
2018-05-12T17:59:54.356Z,4.90
2018-05-12T18:02:21.793Z,5.33
2018-05-12T18:04:49.246Z,5.20
2018-05-12T18:07:17.437Z,4.47
2018-05-12T18:09:44.884Z,5.63
2018-05-12T18:12:12.313Z,5.30
2018-05-12T18:14:40.533Z,8.50
2018-05-12T18:17:07.975Z,8.10
2018-05-12T18:19:37.296Z,11.63
2018-05-12T18:22:05.141Z,7.27
2018-05-12T18:24:32.977Z,6.10
2018-05-12T18:27:00.411Z,6.33
2018-05-12T18:29:29.208Z,6.97
2018-05-12T18:31:57.453Z,5.27
2018-05-12T18:34:24.898Z,4.50
2018-05-12T18:36:52.332Z,5.00
2018-05-12T18:39:20.152Z,5.13
2018-05-12T18:41:47.853Z,5.63
2018-05-12T18:44:15.368Z,12.13
2018-05-12T18:46:42.749Z,6.33
2018-05-12T18:49:10.952Z,5.00
2018-05-12T18:51:38.398Z,5.20
2018-05-12T18:54:05.828Z,4.83
2018-05-12T18:56:33.441Z,5.77
2018-05-12T18:59:00.833Z,5.30
2018-05-12T19:01:28.280Z,6.03
2018-05-12T19:03:55.733Z,5.67
2018-05-12T19:06:23.172Z,5.03
2018-05-12T19:08:51.381Z,5.50
2018-05-12T19:11:18.813Z,7.33
2018-05-12T19:13:46.257Z,6.23
2018-05-12T19:16:13.689Z,5.53
2018-05-12T19:18:41.520Z,6.30
2018-05-12T19:21:09.361Z,5.90
2018-05-12T19:23:36.797Z,6.47
2018-05-12T19:26:04.228Z,5.90
2018-05-12T19:28:31.660Z,6.47
2018-05-12T19:30:59.436Z,6.00
2018-05-12T19:33:26.873Z,12.60
2018-05-12T19:35:54.309Z,7.00
2018-05-12T19:38:21.768Z,8.30
2018-05-12T19:40:49.225Z,5.20
2018-05-12T19:43:16.655Z,8.57
2018-05-12T19:45:44.867Z,16.93
2018-05-12T19:48:12.708Z,6.07
2018-05-12T19:50:40.545Z,5.30
2018-05-12T19:53:07.997Z,6.60
2018-05-12T19:55:36.203Z,8.50
2018-05-12T19:58:03.630Z,6.20
2018-05-12T20:00:31.064Z,6.37
2018-05-12T20:02:59.265Z,6.57
2018-05-12T20:05:27.118Z,6.20
2018-05-12T20:07:54.943Z,9.27
2018-05-12T20:10:22.385Z,5.53
2018-05-12T20:12:49.813Z,6.10
2018-05-12T20:15:17.265Z,8.73
2018-05-12T20:17:44.692Z,6.67
2018-05-12T20:20:12.133Z,10.23
2018-05-12T20:22:39.955Z,6.70
2018-05-12T20:25:07.418Z,10.40
2018-05-12T20:27:34.865Z,7.37
2018-05-12T20:30:02.305Z,7.90
2018-05-12T20:32:29.737Z,6.70
2018-05-12T20:34:57.573Z,8.10
2018-05-12T20:37:25.095Z,7.10
2018-05-12T20:39:52.440Z,12.07
2018-05-12T20:42:19.885Z,8.93
2018-05-12T20:44:47.324Z,7.83
2018-05-12T20:47:15.520Z,7.03
2018-05-12T20:49:44.305Z,7.20
2018-05-12T20:52:12.517Z,6.83
2018-05-12T20:54:39.948Z,8.20
2018-05-12T20:57:07.425Z,11.87
2018-05-12T20:59:35.261Z,9.20
2018-05-12T21:02:03.109Z,11.73
2018-05-12T21:04:30.537Z,6.67
2018-05-12T21:06:57.989Z,5.93
2018-05-12T21:09:25.423Z,9.60
2018-05-12T21:11:52.854Z,9.53
2018-05-12T21:14:21.144Z,7.47
2018-05-12T21:16:48.495Z,7.27
2018-05-12T21:19:15.933Z,9.80
2018-05-12T21:21:43.372Z,6.57
2018-05-12T21:24:10.804Z,7.27
2018-05-12T21:26:39.005Z,7.33
2018-05-12T21:29:07.208Z,6.50
2018-05-12T21:31:35.781Z,6.57
2018-05-12T21:34:03.975Z,6.70
2018-05-12T21:36:31.420Z,7.77
2018-05-12T21:38:59.650Z,7.73
2018-05-12T21:41:27.079Z,6.07
2018-05-12T21:43:55.280Z,7.70
2018-05-12T21:46:22.705Z,7.30
2018-05-12T21:48:50.901Z,7.43
2018-05-12T21:51:18.345Z,7.10
2018-05-12T21:53:46.536Z,9.00
2018-05-12T21:56:13.983Z,10.70
2018-05-12T21:58:41.437Z,10.17
2018-05-12T22:01:08.885Z,7.53
2018-05-12T22:03:36.328Z,8.90
2018-05-12T22:06:03.775Z,7.63
2018-05-12T22:08:31.209Z,13.17
2018-05-12T22:10:58.632Z,8.93
2018-05-12T22:13:27.589Z,9.07
2018-05-12T22:15:55.037Z,7.63
2018-05-12T22:18:22.468Z,8.20
2018-05-12T22:20:49.918Z,8.00
2018-05-12T22:23:17.341Z,10.13
2018-05-12T22:25:44.780Z,7.97
2018-05-12T22:28:12.689Z,10.20
2018-05-12T22:30:40.112Z,14.90
2018-05-12T22:33:07.552Z,9.53
2018-05-12T22:35:35.757Z,9.73
2018-05-12T22:38:04.540Z,12.63
2018-05-12T22:40:32.055Z,11.43
2018-05-12T22:43:00.261Z,14.70
2018-05-12T22:45:27.706Z,17.90
2018-05-12T22:47:55.563Z,14.20
2018-05-12T22:50:23.027Z,12.13
2018-05-12T22:52:50.461Z,9.50
2018-05-12T22:55:17.887Z,12.10
2018-05-12T22:57:46.115Z,14.70
2018-05-12T23:00:14.325Z,11.67
2018-05-12T23:02:41.761Z,12.13
2018-05-12T23:05:09.608Z,9.10
2018-05-12T23:07:37.806Z,11.40
2018-05-12T23:10:06.088Z,10.23
2018-05-12T23:12:34.589Z,12.23
2018-05-12T23:15:02.021Z,10.50
2018-05-12T23:17:29.458Z,9.63
2018-05-12T23:19:56.905Z,8.67
2018-05-12T23:22:24.323Z,9.67
2018-05-12T23:24:51.840Z,10.03
2018-05-12T23:27:19.203Z,10.47
2018-05-12T23:29:46.629Z,9.83
2018-05-12T23:32:14.470Z,9.80
2018-05-12T23:34:41.900Z,9.53
2018-05-12T23:37:09.333Z,11.00
2018-05-12T23:39:37.525Z,11.50
2018-05-12T23:42:05.753Z,10.53
2018-05-12T23:44:33.197Z,10.93
2018-05-12T23:47:00.640Z,15.67
2018-05-12T23:49:29.597Z,13.07
2018-05-12T23:51:58.279Z,10.80
2018-05-12T23:54:26.463Z,12.23
2018-05-12T23:56:53.908Z,13.33
2018-05-12T23:59:22.692Z,12.07
